Aérodrome :
LOGIN :

S'inscrire | Disclaimer

   EN    FR    IT 

 










Légende :    VFR   VFR Marginal   IFR   IFR Intensif   IFR Très Intensif
Visi : 
Plafond : 
>= 8 km
>= 3000ft
5 à 8 km
1000 à 3000 ft
1500m à 5 km
500 à 1000 ft
800 à 1500m
200 à 500 ft
< 800m
< 200 ft
Symboles :   Orages  Brouillard  Fortes neiges  Fortes précipitations  Vent > 20 kt
SIGMETs :   Divers  Orages  Givrage  Turbulence  Onde Orograph.  Cendres Volcan.






- Altitude de l'aérodrome : 286 ft
- Code IATA : TRF


ENTO - Sandefjord , Torp

DERNIER METAR :
  • 170050Z AUTO 21017KT 9999 FEW016/// 05/02 Q0978

METARs EXPIRÉS :
  • 170020Z AUTO 22019KT 9999 NCD 04/01 Q0978
  • 162350Z AUTO 21015KT 9999 NCD 05/01 Q0978
  • 162320Z AUTO 21012KT 9000 NCD 05/02 Q0979
  • 162250Z 22012KT 9999 FEW020 05/03 Q0979
  • 162220Z 21011KT 9999 FEW016 SCT028 05/02 Q0979

TAF TAF ENTO
Valide du 17 à 00h jusqu'au 18 à 00h UTC


1700/1724 21015KT 9999 SCT020
TEMPO 1703/1715 22022G35KT
TEMPO 1715/1724 22018G28KT



MET'MAP, la Météo Aéronautique d'un coup d'oeil ! - Copyright ORBIFLY Décembre 2007 - Disclaimer

ORBIFLY MET'MAP TEAM :

Programmation & Développement : Alexandra Zaïnal
Sur une idée originale de : Baudouin d'Aumeries
Assistance à la programmation : Marc-Olivier Méhu
Soutien technique & logistique : Manuel Goepfert

Contact : metmap@orbifly.com




SOURCES & CREDITS :

   NOAA